createdAt,value
2023-04-04T00:01:05.218Z,2.54
2023-04-04T00:06:37.037Z,2.66
2023-04-04T00:12:08.446Z,2.47
2023-04-04T00:17:40.390Z,2.64
2023-04-04T00:23:11.900Z,2.63
2023-04-04T00:28:43.598Z,2.41
2023-04-04T00:34:15.301Z,2.37
2023-04-04T00:39:47.089Z,2.4
2023-04-04T00:45:19.051Z,2.44
2023-04-04T00:50:56.946Z,2.1
2023-04-04T00:56:28.871Z,2.14
2023-04-04T01:02:00.376Z,1.93
2023-04-04T01:07:32.930Z,1.8
2023-04-04T01:13:03.801Z,1.66
2023-04-04T01:18:35.674Z,1.76
2023-04-04T01:24:07.288Z,1.73
2023-04-04T01:29:39.016Z,1.72
2023-04-04T01:35:10.815Z,1.59
2023-04-04T01:40:42.591Z,1.66
2023-04-04T01:46:14.184Z,1.65
2023-04-04T01:51:50.540Z,1.46
2023-04-04T01:57:22.052Z,1.61
2023-04-04T02:02:53.772Z,1.55
2023-04-04T02:08:25.456Z,1.41
2023-04-04T02:13:57.436Z,1.31
2023-04-04T02:19:29.142Z,1.13
2023-04-04T02:25:00.632Z,1.17
2023-04-04T02:30:32.638Z,1.18
2023-04-04T02:36:04.144Z,1.05
2023-04-04T02:41:35.792Z,1.02
2023-04-04T02:47:07.546Z,0.96
2023-04-04T02:52:45.657Z,0.7
2023-04-04T02:58:17.417Z,0.66
2023-04-04T03:03:50.099Z,0.65
2023-04-04T03:09:21.045Z,0.65
2023-04-04T03:14:52.564Z,0.8
2023-04-04T03:20:24.536Z,0.69
2023-04-04T03:25:56.707Z,0.66
2023-04-04T03:31:27.725Z,0.77
2023-04-04T03:36:59.650Z,0.69
2023-04-04T03:42:31.200Z,0.51
2023-04-04T03:48:02.974Z,0.51
2023-04-04T03:53:41.252Z,0.73
2023-04-04T03:59:12.780Z,0.74
2023-04-04T04:04:45.185Z,0.55
2023-04-04T04:10:16.219Z,0.49
2023-04-04T04:15:48.180Z,0.37
2023-04-04T04:21:19.879Z,0.53
2023-04-04T04:26:51.602Z,0.55
2023-04-04T04:32:23.125Z,0.37
2023-04-04T04:37:54.806Z,0.5
2023-04-04T04:43:26.526Z,0.33
2023-04-04T04:48:58.530Z,0.15
2023-04-04T04:54:34.624Z,0.25
2023-04-04T05:00:06.436Z,0.22
2023-04-04T05:05:37.870Z,0.41
2023-04-04T05:11:09.714Z,0.4
2023-04-04T05:16:41.565Z,0.41
2023-04-04T05:22:12.979Z,0.3
2023-04-04T05:27:45.258Z,0.35
2023-04-04T05:33:16.465Z,0.45
2023-04-04T05:38:48.427Z,0.56
2023-04-04T05:44:19.870Z,0.7
2023-04-04T05:49:51.636Z,0.7
2023-04-04T05:55:29.785Z,0.59
2023-04-04T06:01:01.565Z,1.3
2023-04-04T06:06:33.490Z,0.85
2023-04-04T06:12:05.395Z,1.28
2023-04-04T06:17:36.905Z,1.53
2023-04-04T06:23:08.542Z,1.7
2023-04-04T06:28:40.120Z,1.76
2023-04-04T06:34:11.895Z,2.0
2023-04-04T06:39:43.784Z,2.13
2023-04-04T06:45:15.541Z,2.79
2023-04-04T06:50:47.254Z,2.83
2023-04-04T06:56:25.228Z,3.17
2023-04-04T07:01:56.924Z,3.3
2023-04-04T07:07:28.691Z,3.45
2023-04-04T07:13:00.360Z,3.57
2023-04-04T07:18:32.339Z,3.55
2023-04-04T07:24:03.903Z,3.48
2023-04-04T07:29:35.885Z,3.56
2023-04-04T07:35:07.533Z,3.97
2023-04-04T07:40:39.124Z,4.3
2023-04-04T07:46:10.994Z,4.24
2023-04-04T07:51:43.014Z,4.27
2023-04-04T07:57:18.865Z,4.83
2023-04-04T08:02:50.412Z,5.16
2023-04-04T08:08:22.071Z,4.96
2023-04-04T08:13:53.763Z,4.86
2023-04-04T08:19:25.615Z,5.11
2023-04-04T08:24:57.388Z,5.69
2023-04-04T08:30:29.218Z,5.63
2023-04-04T08:36:00.918Z,6.2
2023-04-04T08:41:32.348Z,5.96
2023-04-04T08:47:04.111Z,6.81
2023-04-04T08:52:36.024Z,7.1
2023-04-04T08:58:14.284Z,6.55
2023-04-04T09:03:45.992Z,6.17
2023-04-04T09:09:17.390Z,6.42
2023-04-04T09:14:49.367Z,6.25
2023-04-04T09:20:21.032Z,6.31
2023-04-04T09:26:03.010Z,6.17
2023-04-04T09:31:24.323Z,6.45
2023-04-04T09:36:56.296Z,6.32
2023-04-04T09:42:27.684Z,6.55
2023-04-04T09:47:59.700Z,6.89
2023-04-04T09:53:31.154Z,7.45
2023-04-04T09:59:07.345Z,7.45
2023-04-04T10:04:39.187Z,7.34
2023-04-04T10:10:10.871Z,7.45
2023-04-04T10:15:42.636Z,7.76
2023-04-04T10:21:15.538Z,8.36
2023-04-04T10:26:46.067Z,8.33
2023-04-04T10:32:17.591Z,7.86
2023-04-04T10:37:49.508Z,8.21
2023-04-04T10:43:21.875Z,8.36
2023-04-04T10:48:52.730Z,8.41
2023-04-04T10:54:24.474Z,8.62
2023-04-04T11:00:01.009Z,8.39
2023-04-04T11:05:32.364Z,9.15
2023-04-04T11:11:07.217Z,8.9
2023-04-04T11:16:36.040Z,8.87
2023-04-04T11:22:07.490Z,9.13
2023-04-04T11:27:39.508Z,9.7
2023-04-04T11:33:10.959Z,9.53
2023-04-04T11:38:42.628Z,9.56
2023-04-04T11:44:14.373Z,9.26
2023-04-04T11:49:46.424Z,9.49
2023-04-04T11:55:17.817Z,9.47
2023-04-04T12:00:54.708Z,8.98
2023-04-04T12:06:25.649Z,9.58
2023-04-04T12:11:57.388Z,9.8
2023-04-04T12:17:29.090Z,9.83
2023-04-04T12:23:00.838Z,9.82
2023-04-04T12:28:32.655Z,10.49
2023-04-04T12:34:04.230Z,9.41
2023-04-04T12:39:35.958Z,10.03
2023-04-04T12:45:07.694Z,9.83
2023-04-04T12:50:39.534Z,10.04
2023-04-04T12:56:11.123Z,10.71
2023-04-04T13:01:49.296Z,10.17
2023-04-04T13:07:21.095Z,9.98
2023-04-04T13:12:52.688Z,9.84
2023-04-04T13:18:24.391Z,10.41
2023-04-04T13:23:56.366Z,10.42
2023-04-04T13:29:27.970Z,10.26
2023-04-04T13:34:59.654Z,10.26
2023-04-04T13:40:32.110Z,9.49
2023-04-04T13:46:03.357Z,10.0
2023-04-04T13:51:34.901Z,9.66
2023-04-04T13:57:06.649Z,10.12
2023-04-04T14:02:42.761Z,10.48
2023-04-04T14:08:14.510Z,10.06
2023-04-04T14:13:46.408Z,9.81
2023-04-04T14:19:17.896Z,9.96
2023-04-04T14:24:49.626Z,10.17
2023-04-04T14:30:21.566Z,10.12
2023-04-04T14:35:53.252Z,9.9
2023-04-04T14:41:24.916Z,10.0
2023-04-04T14:46:56.518Z,10.18
2023-04-04T14:52:28.205Z,9.63
2023-04-04T14:58:02.316Z,10.03
2023-04-04T15:03:38.070Z,10.35
2023-04-04T15:09:09.770Z,10.0
2023-04-04T15:14:41.630Z,10.15
2023-04-04T15:20:13.215Z,10.12
2023-04-04T15:25:45.259Z,9.99
2023-04-04T15:31:16.731Z,10.17
2023-04-04T15:36:48.393Z,10.02
2023-04-04T15:42:20.115Z,10.37
2023-04-04T15:47:52.083Z,10.22
2023-04-04T15:53:23.746Z,10.5
2023-04-04T15:58:55.558Z,10.75
2023-04-04T16:04:31.395Z,10.38
2023-04-04T16:10:03.127Z,9.87
2023-04-04T16:15:35.675Z,9.7
2023-04-04T16:21:06.569Z,9.92
2023-04-04T16:26:38.394Z,10.01
2023-04-04T16:32:10.072Z,9.5
2023-04-04T16:37:41.900Z,9.46
2023-04-04T16:43:13.448Z,9.56
2023-04-04T16:48:45.428Z,8.98
2023-04-04T16:54:16.879Z,9.09
2023-04-04T16:59:48.587Z,8.5
2023-04-04T17:05:24.708Z,8.92
2023-04-04T17:10:56.448Z,8.45
2023-04-04T17:16:28.204Z,8.42
2023-04-04T17:21:59.904Z,8.55
2023-04-04T17:27:31.575Z,8.43
2023-04-04T17:33:03.354Z,8.43
2023-04-04T17:38:35.040Z,8.01
2023-04-04T17:44:06.810Z,7.64
2023-04-04T17:49:38.681Z,7.71
2023-04-04T17:55:10.416Z,7.32
2023-04-04T18:00:42.068Z,7.47
2023-04-04T18:06:18.786Z,7.19
2023-04-04T18:11:49.838Z,7.21
2023-04-04T18:17:21.502Z,7.32
2023-04-04T18:22:53.200Z,7.04
2023-04-04T18:28:24.887Z,6.9
2023-04-04T18:33:56.634Z,6.78
2023-04-04T18:39:28.325Z,6.62
2023-04-04T18:45:00.436Z,6.68
2023-04-04T18:50:31.810Z,6.71
2023-04-04T18:56:03.528Z,6.48
2023-04-04T19:01:35.328Z,6.36
2023-04-04T19:07:11.475Z,6.13
2023-04-04T19:12:43.095Z,5.89
2023-04-04T19:18:14.954Z,5.81
2023-04-04T19:23:46.669Z,5.71
2023-04-04T19:29:18.214Z,5.42
2023-04-04T19:34:50.098Z,5.27
2023-04-04T19:40:22.274Z,5.1
2023-04-04T19:45:53.485Z,5.04
2023-04-04T19:51:25.328Z,5.01
2023-04-04T19:56:56.982Z,5.03
2023-04-04T20:02:29.050Z,5.04
2023-04-04T20:08:04.865Z,4.89
2023-04-04T20:13:36.417Z,4.78
2023-04-04T20:19:08.336Z,4.65
2023-04-04T20:24:40.186Z,4.66
2023-04-04T20:30:11.752Z,4.42
2023-04-04T20:35:43.351Z,4.46
2023-04-04T20:41:15.110Z,4.44
2023-04-04T20:46:46.782Z,4.39
2023-04-04T20:52:18.534Z,4.4
2023-04-04T20:57:50.218Z,4.36
2023-04-04T21:03:22.018Z,4.31
2023-04-04T21:08:58.253Z,4.18
2023-04-04T21:14:29.823Z,4.26
2023-04-04T21:20:01.902Z,4.25
2023-04-04T21:25:33.468Z,4.13
2023-04-04T21:31:05.022Z,4.06
2023-04-04T21:36:36.719Z,4.02
2023-04-04T21:42:09.264Z,3.94
2023-04-04T21:47:40.143Z,3.89
2023-04-04T21:53:11.890Z,3.95
2023-04-04T21:58:43.596Z,3.96
2023-04-04T22:04:15.568Z,3.76
2023-04-04T22:09:51.452Z,3.66
2023-04-04T22:15:23.174Z,3.61
2023-04-04T22:20:54.909Z,3.54
2023-04-04T22:26:26.587Z,3.44
2023-04-04T22:31:58.584Z,3.37
2023-04-04T22:37:30.692Z,3.37
2023-04-04T22:43:01.803Z,3.37
2023-04-04T22:48:33.568Z,3.35
2023-04-04T22:54:05.555Z,3.37
2023-04-04T22:59:37.159Z,3.37
2023-04-04T23:05:08.981Z,3.28
2023-04-04T23:10:44.757Z,3.16
2023-04-04T23:16:16.623Z,3.25
2023-04-04T23:21:48.245Z,3.19
2023-04-04T23:27:19.977Z,3.17
2023-04-04T23:32:51.915Z,3.06
2023-04-04T23:38:23.480Z,3.03
2023-04-04T23:43:55.116Z,3.08
2023-04-04T23:49:26.898Z,3.17
2023-04-04T23:54:58.881Z,3.15
